createdAt,value
2022-07-26T00:01:41.968Z,9.60
2022-07-26T00:04:48.180Z,7.70
2022-07-26T00:08:10.992Z,7.30
2022-07-26T00:11:07.052Z,6.30
2022-07-26T00:13:51.028Z,9.40
2022-07-26T00:16:53.119Z,11.90
2022-07-26T00:19:45.235Z,9.30
2022-07-26T00:22:57.417Z,13.40
2022-07-26T00:25:43.506Z,10.60
2022-07-26T00:28:32.656Z,8.20
2022-07-26T00:31:28.201Z,10.20
2022-07-26T00:34:23.808Z,7.30
2022-07-26T00:37:21.213Z,9.30
2022-07-26T00:40:11.954Z,8.80
2022-07-26T00:43:15.393Z,12.60
2022-07-26T00:46:21.498Z,9.90
2022-07-26T00:49:14.896Z,16.30
2022-07-26T00:52:19.015Z,12.50
2022-07-26T00:55:12.056Z,16.40
2022-07-26T00:58:46.790Z,13.70
2022-07-26T01:01:55.700Z,9.60
2022-07-26T01:04:45.407Z,9.70
2022-07-26T01:07:59.126Z,6.20
2022-07-26T01:10:58.563Z,10.20
2022-07-26T01:13:58.528Z,12.20
2022-07-26T01:17:13.808Z,13.60
2022-07-26T01:20:32.498Z,7.10
2022-07-26T01:23:31.219Z,11.30
2022-07-26T01:26:30.306Z,12.00
2022-07-26T01:29:35.367Z,11.50
2022-07-26T01:32:44.279Z,17.00
2022-07-26T01:35:36.948Z,13.00
2022-07-26T01:38:34.461Z,8.90
2022-07-26T01:41:37.369Z,9.00
2022-07-26T01:44:37.858Z,10.40
2022-07-26T01:47:26.458Z,11.60
2022-07-26T01:50:24.772Z,7.10
2022-07-26T01:53:28.117Z,10.60
2022-07-26T01:56:19.016Z,9.00
2022-07-26T01:59:24.523Z,11.80
2022-07-26T02:02:10.155Z,8.60
2022-07-26T02:05:02.559Z,11.30
2022-07-26T02:07:49.678Z,9.30
2022-07-26T02:10:52.980Z,6.60
2022-07-26T02:13:42.360Z,8.30
2022-07-26T02:16:25.785Z,9.30
2022-07-26T02:19:16.951Z,8.30
2022-07-26T02:22:09.165Z,8.80
2022-07-26T02:24:59.499Z,7.00
2022-07-26T02:27:55.461Z,9.60
2022-07-26T02:30:52.360Z,13.10
2022-07-26T02:33:38.756Z,15.20
2022-07-26T02:36:23.922Z,19.20
2022-07-26T02:39:13.470Z,18.00
2022-07-26T02:42:02.046Z,17.20
2022-07-26T02:44:47.330Z,16.50
2022-07-26T02:47:33.219Z,27.70
2022-07-26T02:50:28.769Z,19.40
2022-07-26T02:53:11.904Z,18.80
2022-07-26T02:56:15.035Z,19.00
2022-07-26T02:59:09.691Z,20.80
2022-07-26T03:02:04.436Z,17.40
2022-07-26T03:07:31.120Z,17.50
2022-07-26T03:10:19.833Z,21.00
2022-07-26T03:13:27.850Z,22.00
2022-07-26T03:16:20.375Z,22.20
2022-07-26T03:19:15.120Z,23.50
2022-07-26T03:22:08.529Z,18.30
2022-07-26T03:25:03.673Z,19.40
2022-07-26T03:27:47.021Z,18.00
2022-07-26T03:30:50.332Z,17.60
2022-07-26T03:33:39.778Z,18.20
2022-07-26T03:36:46.218Z,17.80
2022-07-26T03:39:40.669Z,16.70
2022-07-26T03:42:26.243Z,17.20
2022-07-26T03:45:12.454Z,14.40
2022-07-26T03:47:55.665Z,14.70
2022-07-26T03:50:44.060Z,15.90
2022-07-26T03:53:30.247Z,13.60
2022-07-26T03:56:31.835Z,14.10
2022-07-26T03:59:25.711Z,15.50
2022-07-26T04:02:11.597Z,15.00
2022-07-26T04:05:05.569Z,16.90
2022-07-26T04:07:53.062Z,16.90
2022-07-26T04:10:39.608Z,16.20
2022-07-26T04:13:24.223Z,13.80
2022-07-26T04:16:16.686Z,14.50
2022-07-26T04:19:05.355Z,15.70
2022-07-26T04:21:49.814Z,17.80
2022-07-26T04:25:01.911Z,20.10
2022-07-26T04:27:50.688Z,14.40
2022-07-26T04:30:38.829Z,17.40
2022-07-26T04:33:24.712Z,13.20
2022-07-26T04:36:28.094Z,16.40
2022-07-26T04:39:31.609Z,18.50
2022-07-26T04:42:17.193Z,14.80
2022-07-26T04:45:12.117Z,16.50
2022-07-26T04:48:17.501Z,21.60
2022-07-26T04:51:13.581Z,29.70
2022-07-26T04:54:07.384Z,26.90
2022-07-26T04:57:09.376Z,18.60
2022-07-26T05:00:16.657Z,14.80
2022-07-26T05:03:27.515Z,16.60
2022-07-26T05:06:15.156Z,16.40
2022-07-26T05:09:07.686Z,17.80
2022-07-26T05:11:53.945Z,17.40
2022-07-26T05:14:53.169Z,16.20
2022-07-26T05:17:44.232Z,14.50
2022-07-26T05:20:30.827Z,16.50
2022-07-26T05:23:20.709Z,16.40
2022-07-26T05:26:04.125Z,17.00
2022-07-26T05:28:47.168Z,17.60
2022-07-26T05:31:30.544Z,16.40
2022-07-26T05:34:14.774Z,14.30
2022-07-26T05:36:57.734Z,16.70
2022-07-26T05:39:44.060Z,16.70
2022-07-26T05:42:27.288Z,13.90
2022-07-26T05:45:10.986Z,12.80
2022-07-26T05:47:54.251Z,14.90
2022-07-26T05:50:37.431Z,14.80
2022-07-26T05:53:27.982Z,16.10
2022-07-26T05:56:11.057Z,13.70
2022-07-26T05:58:57.474Z,12.60
2022-07-26T06:01:43.867Z,13.30
2022-07-26T06:04:27.795Z,14.90
2022-07-26T06:07:10.903Z,9.90
2022-07-26T06:09:54.170Z,9.70
2022-07-26T06:12:40.030Z,8.20
2022-07-26T06:15:22.998Z,9.30
2022-07-26T06:18:27.047Z,7.90
2022-07-26T06:21:12.744Z,6.60
2022-07-26T06:23:56.072Z,5.90
2022-07-26T06:26:39.328Z,5.80
2022-07-26T06:29:32.057Z,6.00
2022-07-26T06:32:36.082Z,7.90
2022-07-26T06:35:21.590Z,8.00
2022-07-26T06:38:13.408Z,8.90
2022-07-26T06:40:56.541Z,5.90
2022-07-26T06:43:42.633Z,6.70
2022-07-26T06:46:28.119Z,4.90
2022-07-26T06:49:14.182Z,6.60
2022-07-26T06:52:01.514Z,9.20
2022-07-26T06:54:45.037Z,6.00
2022-07-26T06:57:28.455Z,8.40
2022-07-26T07:00:14.675Z,7.40
2022-07-26T07:03:01.238Z,15.60
2022-07-26T07:05:49.455Z,6.80
2022-07-26T07:08:34.594Z,8.70
2022-07-26T07:11:18.279Z,9.30
2022-07-26T07:14:05.654Z,6.70
2022-07-26T07:16:51.681Z,6.80
2022-07-26T07:19:38.541Z,9.40
2022-07-26T07:22:21.848Z,12.60
2022-07-26T07:25:06.237Z,13.60
2022-07-26T07:27:51.773Z,5.40
2022-07-26T07:30:35.614Z,11.30
2022-07-26T07:33:22.768Z,10.30
2022-07-26T07:36:06.726Z,10.50
2022-07-26T07:38:50.418Z,11.20
2022-07-26T07:41:47.647Z,9.40
2022-07-26T07:44:30.817Z,9.80
2022-07-26T07:47:15.092Z,9.80
2022-07-26T07:49:58.130Z,9.60
2022-07-26T07:52:41.055Z,9.60
2022-07-26T07:55:41.511Z,9.00
2022-07-26T07:58:28.395Z,8.30
2022-07-26T08:01:12.236Z,10.20
2022-07-26T08:03:57.615Z,14.40
2022-07-26T08:06:41.481Z,11.60
2022-07-26T08:09:24.950Z,11.50
2022-07-26T08:12:12.073Z,8.20
2022-07-26T08:14:58.384Z,6.10
2022-07-26T08:17:44.963Z,9.80
2022-07-26T08:20:34.403Z,9.90
2022-07-26T08:23:37.914Z,6.80
2022-07-26T08:26:20.938Z,7.00
2022-07-26T08:29:04.236Z,8.60
2022-07-26T08:31:50.748Z,10.40
2022-07-26T08:34:33.993Z,8.30
2022-07-26T08:37:20.087Z,10.20
2022-07-26T08:40:06.561Z,13.50
2022-07-26T08:42:52.674Z,7.80
2022-07-26T08:45:36.214Z,11.20
2022-07-26T08:48:19.405Z,6.20
2022-07-26T08:51:11.215Z,9.90
2022-07-26T08:54:05.814Z,8.40
2022-07-26T09:00:35.033Z,10.00
2022-07-26T09:03:26.285Z,12.90
2022-07-26T09:06:35.422Z,12.10
2022-07-26T09:09:19.724Z,9.30
2022-07-26T09:12:32.936Z,11.80
2022-07-26T09:15:33.282Z,9.70
2022-07-26T09:18:29.756Z,8.00
2022-07-26T09:21:36.890Z,10.60
2022-07-26T09:24:41.509Z,11.70
2022-07-26T09:27:28.162Z,12.60
2022-07-26T09:30:12.616Z,24.00
2022-07-26T09:33:05.680Z,11.10
2022-07-26T09:36:08.917Z,10.50
2022-07-26T09:38:58.503Z,11.50
2022-07-26T09:41:41.864Z,7.90
2022-07-26T09:44:26.890Z,9.90
2022-07-26T09:47:10.319Z,6.80
2022-07-26T09:50:11.673Z,7.50
2022-07-26T09:53:10.239Z,4.80
2022-07-26T09:55:53.310Z,7.50
2022-07-26T09:58:37.999Z,8.40
2022-07-26T10:01:21.051Z,8.80
2022-07-26T10:04:04.270Z,7.50
2022-07-26T10:06:48.264Z,8.00
2022-07-26T10:09:37.382Z,5.20
2022-07-26T10:12:27.195Z,4.60
2022-07-26T10:15:36.788Z,6.50
2022-07-26T10:18:39.181Z,5.20
2022-07-26T10:21:28.037Z,5.50
2022-07-26T10:24:26.570Z,3.40
2022-07-26T10:27:42.572Z,5.80
2022-07-26T10:30:34.290Z,7.20
2022-07-26T10:33:21.403Z,5.90
2022-07-26T10:36:23.286Z,4.10
2022-07-26T10:39:06.540Z,4.80
2022-07-26T10:41:59.028Z,7.70
2022-07-26T10:44:44.968Z,8.90
2022-07-26T10:47:32.059Z,4.20
2022-07-26T10:50:33.637Z,2.40
2022-07-26T10:53:26.178Z,8.80
2022-07-26T10:56:09.173Z,3.00
2022-07-26T10:58:52.076Z,5.40
2022-07-26T11:01:42.678Z,4.90
2022-07-26T11:04:26.183Z,4.00
2022-07-26T11:07:09.415Z,6.40
2022-07-26T11:09:56.740Z,4.60
2022-07-26T11:12:39.703Z,6.80
2022-07-26T11:15:22.837Z,7.50
2022-07-26T11:18:13.154Z,4.50
2022-07-26T11:20:58.935Z,4.30
2022-07-26T11:23:44.298Z,6.10
2022-07-26T11:26:27.276Z,3.10
2022-07-26T11:29:16.791Z,5.10
2022-07-26T11:32:14.584Z,4.40
2022-07-26T11:35:02.013Z,3.80
2022-07-26T11:38:07.847Z,3.60
2022-07-26T11:40:54.746Z,3.40
2022-07-26T11:43:40.771Z,2.80
2022-07-26T11:46:33.593Z,5.60
2022-07-26T11:49:19.258Z,4.20
2022-07-26T11:52:04.021Z,4.80
2022-07-26T11:54:52.353Z,2.80
2022-07-26T11:57:35.372Z,4.10
2022-07-26T12:00:19.297Z,3.80
2022-07-26T12:03:06.114Z,6.00
2022-07-26T12:06:09.011Z,3.10
2022-07-26T12:08:57.469Z,5.80
2022-07-26T12:11:41.952Z,6.00
2022-07-26T12:14:26.594Z,3.50
2022-07-26T12:17:19.104Z,4.60
2022-07-26T12:20:17.435Z,6.00
2022-07-26T12:23:06.169Z,7.70
2022-07-26T12:25:49.367Z,5.70
2022-07-26T12:28:43.003Z,9.40
2022-07-26T12:31:35.004Z,5.80
2022-07-26T12:34:25.369Z,7.00
2022-07-26T12:37:18.467Z,11.10
2022-07-26T12:40:10.167Z,7.30
2022-07-26T12:43:01.055Z,3.30
2022-07-26T12:45:45.992Z,6.20
2022-07-26T12:48:31.794Z,4.20
2022-07-26T12:51:15.044Z,9.30
2022-07-26T12:53:58.478Z,4.60
2022-07-26T12:56:44.656Z,4.00
2022-07-26T12:59:36.834Z,23.50
2022-07-26T13:02:22.345Z,5.40
2022-07-26T13:05:06.671Z,5.40
2022-07-26T13:07:52.168Z,1.90
2022-07-26T13:10:36.264Z,7.50
2022-07-26T13:13:19.788Z,9.20
2022-07-26T13:16:06.638Z,3.90
2022-07-26T13:18:53.076Z,4.40
2022-07-26T13:21:38.994Z,6.60
2022-07-26T13:24:25.695Z,1.50
2022-07-26T13:27:10.469Z,5.50
2022-07-26T13:29:57.581Z,3.80
2022-07-26T13:32:44.318Z,6.70
2022-07-26T13:35:30.595Z,4.00
2022-07-26T13:38:13.715Z,3.80
2022-07-26T13:40:56.841Z,3.10
2022-07-26T13:43:40.949Z,3.60
2022-07-26T13:46:31.220Z,3.50
2022-07-26T13:49:16.349Z,3.20
2022-07-26T13:51:59.780Z,2.80
2022-07-26T13:54:42.753Z,5.70
2022-07-26T13:57:52.909Z,4.10
2022-07-26T14:00:29.935Z,3.80
2022-07-26T14:03:12.902Z,3.00
2022-07-26T14:05:57.111Z,3.10
2022-07-26T14:08:40.283Z,4.20
2022-07-26T14:11:23.316Z,4.30
2022-07-26T14:14:07.698Z,4.30
2022-07-26T14:16:51.275Z,7.80
2022-07-26T14:19:36.686Z,5.90
2022-07-26T14:22:19.694Z,4.10
2022-07-26T14:25:02.741Z,6.10
2022-07-26T14:27:46.237Z,4.20
2022-07-26T14:30:29.108Z,2.60
2022-07-26T14:33:12.278Z,3.10
2022-07-26T14:35:55.155Z,3.60
2022-07-26T14:38:38.231Z,2.60
2022-07-26T14:41:21.441Z,2.00
2022-07-26T14:44:04.971Z,2.90
2022-07-26T14:46:47.940Z,7.90
2022-07-26T14:49:30.912Z,3.90
2022-07-26T14:52:15.440Z,2.40
2022-07-26T14:54:58.210Z,2.80
2022-07-26T14:57:43.173Z,4.60
2022-07-26T15:00:26.546Z,1.90
2022-07-26T15:03:10.544Z,4.90
2022-07-26T15:05:53.652Z,3.80
2022-07-26T15:08:39.672Z,4.70
2022-07-26T15:11:22.669Z,5.30
2022-07-26T15:14:06.442Z,6.80
2022-07-26T15:16:49.760Z,9.30
2022-07-26T15:19:32.819Z,5.70
2022-07-26T15:22:18.555Z,3.60
2022-07-26T15:25:01.619Z,11.50
2022-07-26T15:27:45.642Z,4.90
2022-07-26T15:30:28.673Z,3.50
2022-07-26T15:33:12.166Z,23.50
2022-07-26T15:35:59.572Z,4.20
2022-07-26T15:38:47.495Z,3.50
2022-07-26T15:41:30.477Z,4.80
2022-07-26T15:44:16.425Z,7.60
2022-07-26T15:46:59.458Z,4.10
2022-07-26T15:49:42.740Z,4.80
2022-07-26T15:52:25.774Z,6.40
2022-07-26T15:55:29.209Z,3.70
2022-07-26T15:58:13.248Z,3.60
2022-07-26T16:00:59.478Z,3.90
2022-07-26T16:03:42.714Z,2.40
2022-07-26T16:06:25.986Z,3.40
2022-07-26T16:09:18.200Z,3.00
2022-07-26T16:12:06.237Z,5.20
2022-07-26T16:14:49.481Z,3.60
2022-07-26T16:17:32.740Z,4.20
2022-07-26T16:20:19.672Z,3.40
2022-07-26T16:23:03.119Z,2.90
2022-07-26T16:25:48.253Z,6.70
2022-07-26T16:28:32.041Z,9.00
2022-07-26T16:31:15.475Z,3.30
2022-07-26T16:34:01.256Z,3.20
2022-07-26T16:36:44.723Z,4.20
2022-07-26T16:39:28.379Z,3.20
2022-07-26T16:42:14.788Z,5.30
2022-07-26T16:45:00.542Z,4.20
2022-07-26T16:47:43.834Z,9.00
2022-07-26T16:50:28.064Z,7.30
2022-07-26T16:53:13.413Z,4.60
2022-07-26T16:55:56.780Z,6.80
2022-07-26T16:58:43.062Z,4.60
2022-07-26T17:01:37.592Z,4.40
2022-07-26T17:07:26.250Z,8.50
2022-07-26T17:10:10.590Z,3.90
2022-07-26T17:12:54.452Z,4.90
2022-07-26T17:15:46.606Z,7.00
2022-07-26T17:18:32.802Z,4.40
2022-07-26T17:21:19.203Z,5.10
2022-07-26T17:24:05.570Z,5.60
2022-07-26T17:26:49.650Z,4.60
2022-07-26T17:29:32.651Z,9.70
2022-07-26T17:32:15.649Z,4.50
2022-07-26T17:34:58.629Z,7.10
2022-07-26T17:37:44.190Z,9.10
2022-07-26T17:40:36.737Z,8.80
2022-07-26T17:43:24.583Z,6.90
2022-07-26T17:46:20.811Z,6.40
2022-07-26T17:49:06.207Z,3.70
2022-07-26T17:51:51.184Z,4.50
2022-07-26T17:54:43.858Z,2.40
2022-07-26T17:57:30.490Z,3.40
2022-07-26T18:00:26.994Z,6.70
2022-07-26T18:03:34.741Z,2.20
2022-07-26T18:06:23.081Z,3.90
2022-07-26T18:09:10.115Z,3.50
2022-07-26T18:11:57.163Z,3.10
2022-07-26T18:14:48.875Z,6.00
2022-07-26T18:17:36.223Z,3.00
2022-07-26T18:20:30.785Z,5.20
2022-07-26T18:23:16.253Z,2.90
2022-07-26T18:26:16.962Z,3.90
2022-07-26T18:29:19.617Z,5.20
2022-07-26T18:32:10.750Z,2.20
2022-07-26T18:34:56.556Z,3.50
2022-07-26T18:37:48.249Z,5.30
2022-07-26T18:40:34.551Z,2.80
2022-07-26T18:43:33.092Z,3.40
2022-07-26T18:46:26.441Z,6.70
2022-07-26T18:49:32.226Z,3.30
2022-07-26T18:52:28.298Z,5.40
2022-07-26T18:55:24.791Z,4.00
2022-07-26T18:58:37.743Z,3.50
2022-07-26T19:01:25.298Z,3.60
2022-07-26T19:04:13.953Z,4.30
2022-07-26T19:07:17.342Z,2.30
2022-07-26T19:10:04.126Z,2.10
2022-07-26T19:12:56.838Z,2.40
2022-07-26T19:15:43.155Z,9.30
2022-07-26T19:18:39.288Z,2.80
2022-07-26T19:21:22.684Z,4.80
2022-07-26T19:24:26.194Z,4.30
2022-07-26T19:27:15.266Z,6.50
2022-07-26T19:30:22.477Z,3.20
2022-07-26T19:33:08.971Z,5.80
2022-07-26T19:36:12.248Z,2.20
2022-07-26T19:39:26.592Z,4.20
2022-07-26T19:42:42.323Z,4.70
2022-07-26T19:45:27.901Z,2.60
2022-07-26T19:48:14.109Z,5.30
2022-07-26T19:51:33.388Z,3.00
2022-07-26T19:54:28.863Z,3.70
2022-07-26T20:00:22.519Z,6.90
2022-07-26T20:03:11.579Z,5.10
2022-07-26T20:06:26.840Z,5.20
2022-07-26T20:09:15.673Z,4.60
2022-07-26T20:12:06.835Z,4.90
2022-07-26T20:15:14.423Z,6.00
2022-07-26T20:18:29.597Z,5.60
2022-07-26T20:21:16.009Z,4.70
2022-07-26T20:24:25.016Z,7.00
2022-07-26T20:27:16.512Z,6.30
2022-07-26T20:30:07.794Z,4.60
2022-07-26T20:32:59.765Z,7.20
2022-07-26T20:35:56.601Z,5.30
2022-07-26T20:38:51.141Z,7.60
2022-07-26T20:41:49.860Z,6.30
2022-07-26T20:44:39.510Z,8.30
2022-07-26T20:47:40.347Z,4.30
2022-07-26T20:50:46.572Z,4.80
2022-07-26T20:53:35.841Z,4.80
2022-07-26T20:56:24.774Z,7.00
2022-07-26T20:59:13.950Z,6.60
2022-07-26T21:02:25.767Z,5.40
2022-07-26T21:05:32.527Z,3.90
2022-07-26T21:08:35.863Z,3.10
2022-07-26T21:11:33.213Z,3.70
2022-07-26T21:14:21.745Z,5.80
2022-07-26T21:17:34.790Z,4.30
2022-07-26T21:20:24.312Z,4.10
2022-07-26T21:23:18.520Z,6.30
2022-07-26T21:26:23.307Z,4.30
2022-07-26T21:29:39.267Z,7.10
2022-07-26T21:32:31.920Z,8.30
2022-07-26T21:38:35.662Z,4.50
2022-07-26T21:41:53.450Z,9.40
2022-07-26T21:44:46.667Z,7.20
2022-07-26T21:47:43.854Z,7.10
2022-07-26T21:50:38.896Z,5.80
2022-07-26T21:54:02.355Z,5.60
2022-07-26T21:57:08.359Z,9.50
2022-07-26T22:00:17.022Z,7.30
2022-07-26T22:03:06.574Z,5.90
2022-07-26T22:06:01.776Z,8.30
2022-07-26T22:08:56.629Z,7.20
2022-07-26T22:12:10.367Z,5.60
2022-07-26T22:15:27.044Z,5.40
2022-07-26T22:18:22.123Z,6.00
2022-07-26T22:21:10.750Z,13.60
2022-07-26T22:23:56.780Z,6.70
2022-07-26T22:26:42.175Z,6.30
2022-07-26T22:29:40.167Z,11.40
2022-07-26T22:32:43.925Z,9.00
2022-07-26T22:35:39.073Z,7.80
2022-07-26T22:38:27.661Z,8.00
2022-07-26T22:41:16.170Z,8.20
2022-07-26T22:44:08.835Z,7.00
2022-07-26T22:47:15.589Z,4.60
2022-07-26T22:50:19.878Z,8.10
2022-07-26T22:53:14.494Z,7.50
2022-07-26T22:57:19.004Z,6.70
2022-07-26T23:00:07.333Z,7.40
2022-07-26T23:03:03.492Z,6.80
2022-07-26T23:06:15.994Z,5.90
2022-07-26T23:09:24.847Z,8.70
2022-07-26T23:12:21.494Z,7.00
2022-07-26T23:15:30.833Z,9.80
2022-07-26T23:18:23.054Z,8.50
2022-07-26T23:21:35.371Z,8.30
2022-07-26T23:24:37.975Z,6.30
2022-07-26T23:27:40.130Z,8.40
2022-07-26T23:30:43.875Z,7.70
2022-07-26T23:33:52.635Z,7.40
2022-07-26T23:36:59.049Z,8.10
2022-07-26T23:39:57.175Z,8.10
2022-07-26T23:42:53.631Z,7.90
2022-07-26T23:46:16.060Z,7.10
2022-07-26T23:49:10.220Z,7.50
2022-07-26T23:52:18.351Z,5.80
2022-07-26T23:55:10.981Z,9.00
2022-07-26T23:58:05.397Z,6.50
